createdAt,value
2023-04-12T00:01:08.084Z,100790.88
2023-04-12T00:03:41.741Z,100792.66
2023-04-12T00:06:13.790Z,100790.66
2023-04-12T00:08:50.148Z,100793.28
2023-04-12T00:11:22.146Z,100798.44
2023-04-12T00:13:54.488Z,100784.25
2023-04-12T00:16:26.716Z,100782.56
2023-04-12T00:18:59.013Z,100792.28
2023-04-12T00:21:31.312Z,100788.81
2023-04-12T00:24:03.793Z,100782.56
2023-04-12T00:26:36.806Z,100788.44
2023-04-12T00:29:09.084Z,100783.38
2023-04-12T00:31:42.539Z,100781.50
2023-04-12T00:34:13.545Z,100786.44
2023-04-12T00:36:43.913Z,100782.34
2023-04-12T00:39:14.368Z,100789.25
2023-04-12T00:41:44.746Z,100793.00
2023-04-12T00:44:15.696Z,100791.03
2023-04-12T00:46:47.823Z,100794.88
2023-04-12T00:49:18.339Z,100801.44
2023-04-12T00:51:48.772Z,100810.38
2023-04-12T00:54:19.920Z,100811.41
2023-04-12T00:56:51.472Z,100812.63
2023-04-12T00:59:22.094Z,100811.03
2023-04-12T01:01:54.290Z,100811.94
2023-04-12T01:04:27.842Z,100815.13
2023-04-12T01:07:16.934Z,100822.25
2023-04-12T01:10:20.323Z,100813.28
2023-04-12T01:13:25.684Z,100802.25
2023-04-12T01:16:21.430Z,100810.28
2023-04-12T01:18:54.040Z,100817.94
2023-04-12T01:21:51.933Z,100821.78
2023-04-12T01:24:54.455Z,100820.31
2023-04-12T01:27:48.560Z,100825.03
2023-04-12T01:30:21.495Z,100815.25
2023-04-12T01:32:55.313Z,100811.34
2023-04-12T01:35:32.438Z,100809.72
2023-04-12T01:38:05.332Z,100799.44
2023-04-12T01:40:37.539Z,100801.78
2023-04-12T01:43:09.964Z,100793.19
2023-04-12T01:45:42.011Z,100788.13
2023-04-12T01:48:14.373Z,100782.44
2023-04-12T01:50:53.667Z,100776.75
2023-04-12T01:53:54.205Z,100781.94
2023-04-12T01:56:26.987Z,100777.75
2023-04-12T01:58:59.331Z,100775.03
2023-04-12T02:01:31.328Z,100774.88
2023-04-12T02:04:03.994Z,100771.13
2023-04-12T02:06:36.137Z,100766.44
2023-04-12T02:09:10.215Z,100758.03
2023-04-12T02:11:40.711Z,100764.78
2023-04-12T02:14:13.080Z,100753.81
2023-04-12T02:16:47.302Z,100761.00
2023-04-12T02:19:18.050Z,100762.88
2023-04-12T02:21:48.623Z,100756.91
2023-04-12T02:24:19.741Z,100757.53
2023-04-12T02:26:52.929Z,100754.19
2023-04-12T02:29:25.417Z,100756.97
2023-04-12T02:31:56.050Z,100766.81
2023-04-12T02:34:32.825Z,100753.63
2023-04-12T02:37:15.213Z,100753.72
2023-04-12T02:39:46.278Z,100756.25
2023-04-12T02:42:17.379Z,100758.03
2023-04-12T02:44:51.589Z,100765.22
2023-04-12T02:47:23.086Z,100749.78
2023-04-12T02:49:53.491Z,100755.28
2023-04-12T02:52:26.020Z,100744.16
2023-04-12T02:55:06.365Z,100753.41
2023-04-12T02:57:36.974Z,100742.56
2023-04-12T03:00:15.375Z,100738.81
2023-04-12T03:02:53.156Z,100725.19
2023-04-12T03:05:28.881Z,100713.94
2023-04-12T03:07:59.731Z,100726.94
2023-04-12T03:10:39.994Z,100717.94
2023-04-12T03:13:10.357Z,100693.66
2023-04-12T03:15:45.284Z,100689.44
2023-04-12T03:18:16.431Z,100690.91
2023-04-12T03:20:50.524Z,100688.94
2023-04-12T03:23:22.028Z,100686.50
2023-04-12T03:26:17.589Z,100682.03
2023-04-12T03:29:11.333Z,100688.84
2023-04-12T03:31:44.206Z,100683.41
2023-04-12T03:34:15.827Z,100680.50
2023-04-12T03:36:51.276Z,100683.66
2023-04-12T03:39:35.572Z,100685.75
2023-04-12T03:42:06.454Z,100685.09
2023-04-12T03:44:38.018Z,100686.69
2023-04-12T03:47:13.692Z,100675.25
2023-04-12T03:49:51.642Z,100680.50
2023-04-12T03:52:28.269Z,100675.38
2023-04-12T03:54:58.910Z,100667.28
2023-04-12T03:57:30.585Z,100689.72
2023-04-12T04:00:02.168Z,100690.38
2023-04-12T04:02:48.811Z,100697.09
2023-04-12T04:05:20.151Z,100691.75
2023-04-12T04:07:51.180Z,100682.41
2023-04-12T04:10:21.915Z,100687.34
2023-04-12T04:12:53.126Z,100682.13
2023-04-12T04:15:23.599Z,100681.84
2023-04-12T04:17:54.204Z,100682.78
2023-04-12T04:20:26.012Z,100687.25
2023-04-12T04:22:57.735Z,100681.84
2023-04-12T04:25:31.475Z,100666.13
2023-04-12T04:28:05.353Z,100667.50
2023-04-12T04:30:40.264Z,100660.28
2023-04-12T04:33:20.851Z,100655.44
2023-04-12T04:35:53.297Z,100658.50
2023-04-12T04:38:29.997Z,100639.63
2023-04-12T04:41:11.907Z,100634.72
2023-04-12T04:43:57.028Z,100644.34
2023-04-12T04:46:32.498Z,100642.56
2023-04-12T04:49:03.947Z,100644.97
2023-04-12T04:51:35.018Z,100638.81
2023-04-12T04:54:07.352Z,100640.88
2023-04-12T04:56:40.615Z,100620.75
2023-04-12T04:59:12.123Z,100603.16
2023-04-12T05:01:44.779Z,100589.31
2023-04-12T05:04:19.111Z,100602.22
2023-04-12T05:06:50.257Z,100614.88
2023-04-12T05:09:24.692Z,100639.97
2023-04-12T05:11:59.296Z,100626.31
2023-04-12T05:14:44.083Z,100630.63
2023-04-12T05:17:21.406Z,100631.03
2023-04-12T05:19:51.894Z,100640.28
2023-04-12T05:22:23.208Z,100638.78
2023-04-12T05:24:53.971Z,100634.81
2023-04-12T05:27:24.733Z,100635.34
2023-04-12T05:29:56.436Z,100634.06
2023-04-12T05:32:28.672Z,100641.53
2023-04-12T05:34:59.184Z,100633.25
2023-04-12T05:37:30.749Z,100634.72
2023-04-12T05:40:02.197Z,100649.63
2023-04-12T05:42:32.985Z,100627.88
2023-04-12T05:45:03.906Z,100613.22
2023-04-12T05:47:39.382Z,100592.88
2023-04-12T05:50:12.979Z,100585.09
2023-04-12T05:52:44.204Z,100578.19
2023-04-12T05:55:15.477Z,100568.53
2023-04-12T05:57:48.404Z,100574.84
2023-04-12T06:00:22.987Z,100583.84
2023-04-12T06:02:53.947Z,100591.84
2023-04-12T06:05:25.534Z,100583.34
2023-04-12T06:07:56.312Z,100570.94
2023-04-12T06:10:27.138Z,100579.78
2023-04-12T06:12:57.645Z,100585.97
2023-04-12T06:15:28.301Z,100572.09
2023-04-12T06:18:01.078Z,100581.03
2023-04-12T06:20:32.105Z,100572.34
2023-04-12T06:23:02.711Z,100561.22
2023-04-12T06:25:33.284Z,100554.38
2023-04-12T06:28:04.456Z,100562.25
2023-04-12T06:30:40.842Z,100564.88
2023-04-12T06:33:12.927Z,100563.19
2023-04-12T06:35:44.378Z,100559.84
2023-04-12T06:38:15.411Z,100559.97
2023-04-12T06:40:45.896Z,100552.09
2023-04-12T06:43:21.804Z,100554.72
2023-04-12T06:45:52.319Z,100571.38
2023-04-12T06:48:23.001Z,100605.53
2023-04-12T06:50:53.938Z,100596.00
2023-04-12T06:53:24.527Z,100563.63
2023-04-12T06:55:55.923Z,100549.78
2023-04-12T06:58:26.354Z,100562.03
2023-04-12T07:00:57.061Z,100581.97
2023-04-12T07:03:30.399Z,100570.75
2023-04-12T07:06:21.456Z,100573.25
2023-04-12T07:08:54.918Z,100570.66
2023-04-12T07:11:26.012Z,100570.66
2023-04-12T07:14:00.671Z,100574.09
2023-04-12T07:16:35.706Z,100557.44
2023-04-12T07:19:06.910Z,100577.56
2023-04-12T07:21:37.323Z,100570.53
2023-04-12T07:24:07.803Z,100566.13
2023-04-12T07:26:38.206Z,100572.94
2023-04-12T07:29:08.958Z,100563.44
2023-04-12T07:31:39.576Z,100550.31
2023-04-12T07:34:10.217Z,100554.50
2023-04-12T07:36:40.993Z,100556.28
2023-04-12T07:39:13.602Z,100567.59
2023-04-12T07:41:51.232Z,100576.28
2023-04-12T07:44:24.672Z,100565.81
2023-04-12T07:46:55.100Z,100575.34
2023-04-12T07:49:25.455Z,100577.97
2023-04-12T07:51:56.039Z,100577.13
2023-04-12T07:54:30.444Z,100566.56
2023-04-12T07:57:05.336Z,100566.75
2023-04-12T07:59:36.022Z,100564.03
2023-04-12T08:02:07.730Z,100565.81
2023-04-12T08:04:45.667Z,100559.63
2023-04-12T08:07:17.545Z,100564.88
2023-04-12T08:09:49.031Z,100564.03
2023-04-12T08:12:19.518Z,100559.84
2023-04-12T08:14:50.031Z,100559.84
2023-04-12T08:17:20.943Z,100566.03
2023-04-12T08:19:51.596Z,100566.97
2023-04-12T08:22:22.776Z,100577.56
2023-04-12T08:24:53.320Z,100568.84
2023-04-12T08:27:24.001Z,100560.16
2023-04-12T08:29:54.515Z,100563.72
2023-04-12T08:32:25.218Z,100563.72
2023-04-12T08:34:56.968Z,100574.28
2023-04-12T08:37:27.561Z,100570.00
2023-04-12T08:39:58.338Z,100570.94
2023-04-12T08:42:29.297Z,100566.56
2023-04-12T08:45:00.157Z,100566.66
2023-04-12T08:47:30.779Z,100571.06
2023-04-12T08:50:02.525Z,100580.69
2023-04-12T08:52:37.247Z,100583.31
2023-04-12T08:55:09.172Z,100578.97
2023-04-12T08:57:43.196Z,100582.66
2023-04-12T09:00:16.146Z,100584.44
2023-04-12T09:02:48.684Z,100581.81
2023-04-12T09:05:20.522Z,100578.44
2023-04-12T09:07:50.968Z,100569.03
2023-04-12T09:10:41.547Z,100566.50
2023-04-12T09:13:14.625Z,100578.69
2023-04-12T09:15:52.754Z,100576.97
2023-04-12T09:18:24.704Z,100576.13
2023-04-12T09:21:13.329Z,100580.53
2023-04-12T09:23:44.261Z,100575.41
2023-04-12T09:26:31.384Z,100589.47
2023-04-12T09:29:02.546Z,100586.84
2023-04-12T09:31:33.781Z,100595.63
2023-04-12T09:34:12.989Z,100593.88
2023-04-12T09:36:44.733Z,100581.69
2023-04-12T09:39:15.140Z,100585.25
2023-04-12T09:41:46.232Z,100600.97
2023-04-12T09:44:32.110Z,100602.75
2023-04-12T09:47:06.886Z,100602.03
2023-04-12T09:49:46.422Z,100605.47
2023-04-12T09:52:17.565Z,100601.16
2023-04-12T09:54:52.464Z,100602.22
2023-04-12T09:57:26.010Z,100609.13
2023-04-12T10:00:00.937Z,100614.47
2023-04-12T10:02:33.902Z,100616.25
2023-04-12T10:05:05.427Z,100599.78
2023-04-12T10:07:39.344Z,100609.44
2023-04-12T10:10:11.128Z,100611.22
2023-04-12T10:12:43.580Z,100606.91
2023-04-12T10:15:15.150Z,100619.19
2023-04-12T10:17:50.850Z,100604.41
2023-04-12T10:20:24.800Z,100605.31
2023-04-12T10:22:58.483Z,100607.22
2023-04-12T10:25:32.384Z,100597.59
2023-04-12T10:28:25.629Z,100590.75
2023-04-12T10:31:00.035Z,100598.59
2023-04-12T10:33:33.095Z,100599.56
2023-04-12T10:36:12.545Z,100608.25
2023-04-12T10:38:50.047Z,100614.44
2023-04-12T10:41:23.424Z,100625.03
2023-04-12T10:43:54.769Z,100623.34
2023-04-12T10:46:55.323Z,100637.28
2023-04-12T10:49:26.812Z,100639.97
2023-04-12T10:52:07.012Z,100645.31
2023-04-12T10:54:38.159Z,100649.72
2023-04-12T10:57:30.258Z,100652.34
2023-04-12T11:00:00.964Z,100661.13
2023-04-12T11:02:35.976Z,100662.06
2023-04-12T11:05:12.704Z,100660.38
2023-04-12T11:08:10.038Z,100654.31
2023-04-12T11:10:52.963Z,100647.41
2023-04-12T11:13:41.756Z,100649.19
2023-04-12T11:16:16.177Z,100652.75
2023-04-12T11:18:49.302Z,100651.03
2023-04-12T11:21:20.589Z,100648.41
2023-04-12T11:23:53.019Z,100642.44
2023-04-12T11:26:24.122Z,100647.69
2023-04-12T11:28:57.367Z,100641.63
2023-04-12T11:31:27.995Z,100650.41
2023-04-12T11:34:02.512Z,100655.66
2023-04-12T11:36:32.986Z,100653.09
2023-04-12T11:39:04.136Z,100664.53
2023-04-12T11:41:34.854Z,100669.88
2023-04-12T11:44:06.201Z,100655.00
2023-04-12T11:46:37.366Z,100664.75
2023-04-12T11:49:08.692Z,100672.59
2023-04-12T11:51:39.081Z,100677.81
2023-04-12T11:54:09.544Z,100688.38
2023-04-12T11:56:40.532Z,100693.72
2023-04-12T11:59:11.350Z,100701.56
2023-04-12T12:01:41.856Z,100713.81
2023-04-12T12:04:12.495Z,100721.78
2023-04-12T12:06:43.428Z,100726.16
2023-04-12T12:09:14.301Z,100739.34
2023-04-12T12:11:45.275Z,100741.97
2023-04-12T12:14:21.496Z,100754.22
2023-04-12T12:17:00.068Z,100756.94
2023-04-12T12:19:32.634Z,100766.56
2023-04-12T12:22:20.565Z,100778.78
2023-04-12T12:24:58.164Z,100779.72
2023-04-12T12:27:43.403Z,100780.78
2023-04-12T12:30:14.530Z,100794.69
2023-04-12T12:32:47.466Z,100796.47
2023-04-12T12:35:18.029Z,100794.75
2023-04-12T12:37:54.093Z,100797.50
2023-04-12T12:40:35.276Z,100797.50
2023-04-12T12:43:06.050Z,100798.44
2023-04-12T12:45:37.956Z,100801.88
2023-04-12T12:48:08.483Z,100805.44
2023-04-12T12:50:39.112Z,100798.59
2023-04-12T12:53:10.055Z,100805.63
2023-04-12T12:55:40.300Z,100807.41
2023-04-12T12:58:10.690Z,100810.00
2023-04-12T13:00:42.861Z,100812.72
2023-04-12T13:03:13.546Z,100820.59
2023-04-12T13:05:44.111Z,100819.81
2023-04-12T13:08:14.710Z,100832.06
2023-04-12T13:10:45.265Z,100828.59
2023-04-12T13:13:15.987Z,100838.22
2023-04-12T13:15:48.370Z,100847.03
2023-04-12T13:18:18.882Z,100841.91
2023-04-12T13:20:49.273Z,100854.97
2023-04-12T13:23:19.672Z,100845.41
2023-04-12T13:25:50.353Z,100857.66
2023-04-12T13:28:22.199Z,100860.38
2023-04-12T13:30:52.765Z,100857.75
2023-04-12T13:33:23.289Z,100863.94
2023-04-12T13:35:53.631Z,100858.69
2023-04-12T13:38:24.348Z,100864.00
2023-04-12T13:40:55.291Z,100862.31
2023-04-12T13:43:25.991Z,100861.50
2023-04-12T13:45:57.339Z,100865.03
2023-04-12T13:48:27.883Z,100866.81
2023-04-12T13:50:59.861Z,100874.66
2023-04-12T13:53:32.450Z,100873.06
2023-04-12T13:56:03.093Z,100867.81
2023-04-12T13:58:33.673Z,100862.59
2023-04-12T14:01:04.861Z,100875.78
2023-04-12T14:03:35.431Z,100874.94
2023-04-12T14:06:06.275Z,100880.25
2023-04-12T14:08:36.952Z,100877.63
2023-04-12T14:11:08.784Z,100874.22
2023-04-12T14:13:40.048Z,100889.09
2023-04-12T14:16:10.914Z,100896.94
2023-04-12T14:18:41.368Z,100897.03
2023-04-12T14:21:12.862Z,100885.69
2023-04-12T14:23:43.403Z,100888.41
2023-04-12T14:26:17.897Z,100893.66
2023-04-12T14:28:51.491Z,100894.59
2023-04-12T14:31:22.577Z,100900.66
2023-04-12T14:33:53.369Z,100895.53
2023-04-12T14:36:24.212Z,100906.94
2023-04-12T14:38:54.650Z,100897.38
2023-04-12T14:41:25.262Z,100894.75
2023-04-12T14:43:55.866Z,100894.84
2023-04-12T14:46:29.412Z,100897.56
2023-04-12T14:49:02.576Z,100907.19
2023-04-12T14:51:33.600Z,100907.25
2023-04-12T14:54:04.258Z,100909.03
2023-04-12T14:56:39.546Z,100898.66
2023-04-12T14:59:13.915Z,100899.59
2023-04-12T15:01:44.296Z,100892.66
2023-04-12T15:04:14.781Z,100899.59
2023-04-12T15:06:46.506Z,100898.72
2023-04-12T15:09:19.096Z,100895.38
2023-04-12T15:11:56.597Z,100892.75
2023-04-12T15:14:29.683Z,100885.00
2023-04-12T15:17:00.196Z,100891.19
2023-04-12T15:19:32.771Z,100892.94
2023-04-12T15:22:03.451Z,100889.47
2023-04-12T15:24:35.345Z,100887.78
2023-04-12T15:27:07.192Z,100877.44
2023-04-12T15:29:41.541Z,100875.75
2023-04-12T15:32:12.204Z,100882.72
2023-04-12T15:34:42.809Z,100868.81
2023-04-12T15:37:13.378Z,100865.34
2023-04-12T15:39:44.000Z,100868.06
2023-04-12T15:42:15.310Z,100870.69
2023-04-12T15:44:46.935Z,100858.56
2023-04-12T15:47:18.330Z,100861.16
2023-04-12T15:49:49.499Z,100856.94
2023-04-12T15:52:20.055Z,100849.09
2023-04-12T15:54:51.246Z,100857.88
2023-04-12T15:57:22.092Z,100853.59
2023-04-12T15:59:54.375Z,100839.66
2023-04-12T16:02:25.373Z,100843.19
2023-04-12T16:04:57.278Z,100846.75
2023-04-12T16:07:27.821Z,100858.97
2023-04-12T16:09:58.765Z,100859.91
2023-04-12T16:12:29.126Z,100855.63
2023-04-12T16:15:01.016Z,100865.25
2023-04-12T16:17:31.457Z,100862.69
2023-04-12T16:20:02.369Z,100860.06
2023-04-12T16:22:32.786Z,100854.09
2023-04-12T16:25:03.326Z,100861.94
2023-04-12T16:27:34.434Z,100855.88
2023-04-12T16:30:05.789Z,100851.59
2023-04-12T16:32:37.561Z,100855.94
2023-04-12T16:35:09.651Z,100836.91
2023-04-12T16:37:40.288Z,100828.22
2023-04-12T16:40:13.837Z,100824.78
2023-04-12T16:42:45.419Z,100829.16
2023-04-12T16:45:16.475Z,100835.28
2023-04-12T16:47:48.983Z,100824.84
2023-04-12T16:50:19.593Z,100831.00
2023-04-12T16:52:50.024Z,100820.66
2023-04-12T16:55:21.323Z,100832.78
2023-04-12T16:57:54.622Z,100826.81
2023-04-12T17:00:26.898Z,100829.41
2023-04-12T17:02:58.024Z,100817.28
2023-04-12T17:05:28.736Z,100822.50
2023-04-12T17:07:59.567Z,100823.41
2023-04-12T17:10:30.785Z,100819.13
2023-04-12T17:13:01.359Z,100826.97
2023-04-12T17:15:32.896Z,100826.22
2023-04-12T17:18:08.175Z,100827.06
2023-04-12T17:20:40.501Z,100821.91
2023-04-12T17:23:11.915Z,100826.28
2023-04-12T17:25:43.273Z,100835.91
2023-04-12T17:28:14.595Z,100840.28
2023-04-12T17:30:45.537Z,100843.00
2023-04-12T17:33:19.418Z,100835.16
2023-04-12T17:35:50.129Z,100833.50
2023-04-12T17:38:20.579Z,100829.16
2023-04-12T17:40:51.300Z,100825.81
2023-04-12T17:43:21.819Z,100828.41
2023-04-12T17:45:52.680Z,100818.91
2023-04-12T17:48:23.274Z,100814.63
2023-04-12T17:50:53.892Z,100815.50
2023-04-12T17:53:24.367Z,100820.75
2023-04-12T17:55:54.716Z,100819.06
2023-04-12T17:58:25.319Z,100811.22
2023-04-12T18:00:55.847Z,100810.47
2023-04-12T18:03:26.713Z,100810.47
2023-04-12T18:05:57.646Z,100807.88
2023-04-12T18:08:28.680Z,100807.09
2023-04-12T18:10:59.454Z,100812.31
2023-04-12T18:13:30.224Z,100811.56
2023-04-12T18:16:00.884Z,100829.88
2023-04-12T18:18:31.344Z,100828.94
2023-04-12T18:21:06.198Z,100836.03
2023-04-12T18:23:37.469Z,100836.94
2023-04-12T18:26:08.441Z,100843.09
2023-04-12T18:28:40.849Z,100845.69
2023-04-12T18:31:11.453Z,100852.78
2023-04-12T18:33:45.028Z,100858.03
2023-04-12T18:36:15.766Z,100847.63
2023-04-12T18:38:46.661Z,100846.78
2023-04-12T18:41:17.784Z,100848.56
2023-04-12T18:43:48.419Z,100842.50
2023-04-12T18:46:20.116Z,100845.22
2023-04-12T18:48:53.664Z,100838.22
2023-04-12T18:51:24.520Z,100845.22
2023-04-12T18:53:55.096Z,100829.59
2023-04-12T18:56:25.975Z,100819.25
2023-04-12T18:58:58.597Z,100828.84
2023-04-12T19:01:29.729Z,100822.78
2023-04-12T19:04:02.788Z,100818.50
2023-04-12T19:06:33.866Z,100823.78
2023-04-12T19:09:05.409Z,100838.63
2023-04-12T19:11:37.087Z,100832.56
2023-04-12T19:14:09.037Z,100827.34
2023-04-12T19:16:39.855Z,100823.97
2023-04-12T19:19:10.258Z,100824.81
2023-04-12T19:21:40.837Z,100824.03
2023-04-12T19:24:11.217Z,100832.75
2023-04-12T19:26:48.322Z,100819.75
2023-04-12T19:29:20.309Z,100826.75
2023-04-12T19:31:52.570Z,100814.63
2023-04-12T19:34:23.253Z,100825.06
2023-04-12T19:36:53.591Z,100822.56
2023-04-12T19:39:25.390Z,100821.72
2023-04-12T19:41:56.218Z,100815.63
2023-04-12T19:44:28.096Z,100827.84
2023-04-12T19:46:59.060Z,100828.78
2023-04-12T19:49:29.633Z,100833.16
2023-04-12T19:52:00.491Z,100833.22
2023-04-12T19:54:31.632Z,100830.59
2023-04-12T19:57:02.142Z,100841.13
2023-04-12T19:59:35.384Z,100829.81
2023-04-12T20:02:05.196Z,100825.53
2023-04-12T20:04:35.871Z,100828.25
2023-04-12T20:07:06.462Z,100826.47
2023-04-12T20:09:37.474Z,100834.38
2023-04-12T20:12:08.721Z,100850.91
2023-04-12T20:14:39.983Z,100841.38
2023-04-12T20:17:11.916Z,100839.69
2023-04-12T20:19:42.427Z,100837.06
2023-04-12T20:22:13.851Z,100828.50
2023-04-12T20:24:44.408Z,100825.03
2023-04-12T20:27:18.959Z,100818.97
2023-04-12T20:29:49.774Z,100814.66
2023-04-12T20:32:20.613Z,100815.59
2023-04-12T20:34:51.476Z,100827.81
2023-04-12T20:37:21.930Z,100826.97
2023-04-12T20:39:53.117Z,100830.50
2023-04-12T20:42:24.461Z,100839.25
2023-04-12T20:44:55.984Z,100846.31
2023-04-12T20:47:27.195Z,100848.94
2023-04-12T20:49:57.900Z,100846.31
2023-04-12T20:52:29.126Z,100834.22
2023-04-12T20:54:59.513Z,100830.81
2023-04-12T20:57:30.634Z,100829.13
2023-04-12T21:00:01.113Z,100826.72
2023-04-12T21:02:32.506Z,100826.78
2023-04-12T21:05:02.961Z,100822.56
2023-04-12T21:07:33.635Z,100839.22
2023-04-12T21:10:04.006Z,100835.78
2023-04-12T21:12:36.350Z,100839.22
2023-04-12T21:15:09.123Z,100830.66
2023-04-12T21:17:39.677Z,100819.38
2023-04-12T21:20:18.143Z,100828.19
2023-04-12T21:22:53.654Z,100816.91
2023-04-12T21:25:24.449Z,100823.06
2023-04-12T21:27:54.912Z,100813.47
2023-04-12T21:30:25.398Z,100816.91
2023-04-12T21:32:56.494Z,100800.50
2023-04-12T21:35:27.400Z,100801.34
2023-04-12T21:37:59.140Z,100795.28
2023-04-12T21:40:29.672Z,100800.50
2023-04-12T21:43:00.286Z,100815.28
2023-04-12T21:45:30.769Z,100828.44
2023-04-12T21:48:01.759Z,100822.53
2023-04-12T21:50:32.227Z,100832.06
2023-04-12T21:53:02.676Z,100825.13
2023-04-12T21:55:33.143Z,100819.84
2023-04-12T21:58:03.714Z,100819.00
2023-04-12T22:00:34.751Z,100806.81
2023-04-12T22:03:05.692Z,100808.56
2023-04-12T22:05:37.444Z,100813.78
2023-04-12T22:08:11.944Z,100825.97
2023-04-12T22:10:42.387Z,100822.63
2023-04-12T22:13:14.135Z,100822.63
2023-04-12T22:15:44.542Z,100812.19
2023-04-12T22:18:15.651Z,100820.94
2023-04-12T22:20:46.223Z,100828.75
2023-04-12T22:23:19.343Z,100827.00
2023-04-12T22:25:51.095Z,100828.75
2023-04-12T22:28:23.801Z,100834.91
2023-04-12T22:30:54.318Z,100838.38
2023-04-12T22:33:25.445Z,100852.34
2023-04-12T22:35:56.559Z,100842.75
2023-04-12T22:38:27.464Z,100844.94
2023-04-12T22:41:03.450Z,100856.66
2023-04-12T22:43:44.817Z,100873.53
2023-04-12T22:46:20.099Z,100866.88
2023-04-12T22:48:52.595Z,100865.88
2023-04-12T22:51:23.149Z,100882.06
2023-04-12T22:53:54.494Z,100877.56
2023-04-12T22:56:25.560Z,100881.44
2023-04-12T22:58:57.207Z,100891.41
2023-04-12T23:01:27.777Z,100891.91
2023-04-12T23:04:05.847Z,100894.75
2023-04-12T23:06:36.476Z,100891.88
2023-04-12T23:09:07.444Z,100907.56
2023-04-12T23:11:43.257Z,100905.72
2023-04-12T23:14:14.462Z,100900.84
2023-04-12T23:16:46.497Z,100890.97
2023-04-12T23:19:18.121Z,100891.38
2023-04-12T23:21:48.906Z,100899.81
2023-04-12T23:24:20.106Z,100902.66
2023-04-12T23:26:52.460Z,100895.16
2023-04-12T23:29:23.233Z,100894.00
2023-04-12T23:31:54.177Z,100903.25
2023-04-12T23:34:24.667Z,100909.84
2023-04-12T23:36:56.561Z,100918.44
2023-04-12T23:39:27.064Z,100916.94
2023-04-12T23:41:57.329Z,100920.88
2023-04-12T23:44:29.475Z,100915.56
2023-04-12T23:47:00.557Z,100912.94
2023-04-12T23:49:30.774Z,100913.63
2023-04-12T23:52:01.207Z,100906.47
2023-04-12T23:54:32.578Z,100912.16
2023-04-12T23:57:03.293Z,100901.97
2023-04-12T23:59:33.688Z,100908.03
